sensor_id;sensor_type;location;lat;lon;timestamp;P1;durP1;ratioP1;P2;durP2;ratioP2
35330;SDS011;21441;52.190;20.910;2023-04-01T00:01:48;32.08;;;20.63;;
35330;SDS011;21441;52.190;20.910;2023-04-01T00:04:16;34.63;;;20.50;;
35330;SDS011;21441;52.190;20.910;2023-04-01T00:06:44;30.60;;;20.60;;
35330;SDS011;21441;52.190;20.910;2023-04-01T00:09:13;29.57;;;20.67;;
35330;SDS011;21441;52.190;20.910;2023-04-01T00:11:40;28.15;;;19.55;;
35330;SDS011;21441;52.190;20.910;2023-04-01T00:14:08;25.25;;;17.52;;
35330;SDS011;21441;52.190;20.910;2023-04-01T00:16:35;26.23;;;17.88;;
35330;SDS011;21441;52.190;20.910;2023-04-01T00:19:03;26.98;;;17.08;;
35330;SDS011;21441;52.190;20.910;2023-04-01T00:21:30;23.05;;;16.50;;
35330;SDS011;21441;52.190;20.910;2023-04-01T00:23:59;27.42;;;17.85;;
35330;SDS011;21441;52.190;20.910;2023-04-01T00:26:26;22.65;;;16.48;;
35330;SDS011;21441;52.190;20.910;2023-04-01T00:28:53;25.40;;;17.30;;
35330;SDS011;21441;52.190;20.910;2023-04-01T00:31:20;23.08;;;16.95;;
35330;SDS011;21441;52.190;20.910;2023-04-01T00:33:47;25.15;;;16.42;;
35330;SDS011;21441;52.190;20.910;2023-04-01T00:36:15;25.25;;;17.80;;
35330;SDS011;21441;52.190;20.910;2023-04-01T00:38:45;26.15;;;15.88;;
35330;SDS011;21441;52.190;20.910;2023-04-01T00:41:14;30.48;;;17.08;;
35330;SDS011;21441;52.190;20.910;2023-04-01T00:43:43;20.90;;;16.35;;
35330;SDS011;21441;52.190;20.910;2023-04-01T00:46:12;21.90;;;15.38;;
35330;SDS011;21441;52.190;20.910;2023-04-01T00:48:39;26.38;;;17.85;;
35330;SDS011;21441;52.190;20.910;2023-04-01T00:51:11;21.90;;;17.70;;
35330;SDS011;21441;52.190;20.910;2023-04-01T00:53:43;23.70;;;17.13;;
35330;SDS011;21441;52.190;20.910;2023-04-01T00:56:12;23.63;;;16.77;;
35330;SDS011;21441;52.190;20.910;2023-04-01T00:58:46;23.77;;;16.42;;
35330;SDS011;21441;52.190;20.910;2023-04-01T01:01:16;26.95;;;18.70;;
35330;SDS011;21441;52.190;20.910;2023-04-01T01:03:45;26.33;;;18.15;;
35330;SDS011;21441;52.190;20.910;2023-04-01T01:06:24;29.13;;;20.08;;
35330;SDS011;21441;52.190;20.910;2023-04-01T01:09:06;32.10;;;20.08;;
35330;SDS011;21441;52.190;20.910;2023-04-01T01:11:43;29.55;;;20.17;;
35330;SDS011;21441;52.190;20.910;2023-04-01T01:14:22;29.27;;;20.05;;
35330;SDS011;21441;52.190;20.910;2023-04-01T01:17:02;31.60;;;20.23;;
35330;SDS011;21441;52.190;20.910;2023-04-01T01:22:42;30.55;;;20.02;;
35330;SDS011;21441;52.190;20.910;2023-04-01T01:25:25;32.03;;;21.65;;
35330;SDS011;21441;52.190;20.910;2023-04-01T01:28:01;38.23;;;22.77;;
35330;SDS011;21441;52.190;20.910;2023-04-01T01:30:44;35.40;;;21.25;;
35330;SDS011;21441;52.190;20.910;2023-04-01T01:33:21;31.38;;;22.00;;
35330;SDS011;21441;52.190;20.910;2023-04-01T01:35:58;38.03;;;22.85;;
35330;SDS011;21441;52.190;20.910;2023-04-01T01:38:29;35.72;;;22.42;;
35330;SDS011;21441;52.190;20.910;2023-04-01T01:41:00;35.65;;;23.45;;
35330;SDS011;21441;52.190;20.910;2023-04-01T01:43:32;37.00;;;24.35;;
35330;SDS011;21441;52.190;20.910;2023-04-01T01:46:04;34.70;;;23.23;;
35330;SDS011;21441;52.190;20.910;2023-04-01T01:48:35;32.80;;;23.00;;
35330;SDS011;21441;52.190;20.910;2023-04-01T01:51:05;37.17;;;24.92;;
35330;SDS011;21441;52.190;20.910;2023-04-01T01:53:33;37.33;;;23.65;;
35330;SDS011;21441;52.190;20.910;2023-04-01T01:56:00;35.63;;;23.77;;
35330;SDS011;21441;52.190;20.910;2023-04-01T01:58:28;34.20;;;23.75;;
35330;SDS011;21441;52.190;20.910;2023-04-01T02:01:01;39.72;;;24.17;;
35330;SDS011;21441;52.190;20.910;2023-04-01T02:03:33;34.83;;;23.25;;
35330;SDS011;21441;52.190;20.910;2023-04-01T02:06:04;36.67;;;24.27;;
35330;SDS011;21441;52.190;20.910;2023-04-01T02:08:35;36.53;;;25.48;;
35330;SDS011;21441;52.190;20.910;2023-04-01T02:11:07;36.40;;;24.30;;
35330;SDS011;21441;52.190;20.910;2023-04-01T02:13:37;40.00;;;25.60;;
35330;SDS011;21441;52.190;20.910;2023-04-01T02:16:10;36.95;;;24.90;;
35330;SDS011;21441;52.190;20.910;2023-04-01T02:18:41;34.60;;;23.75;;
35330;SDS011;21441;52.190;20.910;2023-04-01T02:21:12;36.22;;;24.85;;
35330;SDS011;21441;52.190;20.910;2023-04-01T02:23:41;44.92;;;25.13;;
35330;SDS011;21441;52.190;20.910;2023-04-01T02:26:09;43.53;;;26.42;;
35330;SDS011;21441;52.190;20.910;2023-04-01T02:28:38;39.20;;;25.17;;
35330;SDS011;21441;52.190;20.910;2023-04-01T02:31:08;39.03;;;25.27;;
35330;SDS011;21441;52.190;20.910;2023-04-01T02:33:36;38.45;;;26.63;;
35330;SDS011;21441;52.190;20.910;2023-04-01T02:36:06;39.30;;;25.08;;
35330;SDS011;21441;52.190;20.910;2023-04-01T02:38:40;39.22;;;25.58;;
35330;SDS011;21441;52.190;20.910;2023-04-01T02:41:08;39.88;;;25.00;;
35330;SDS011;21441;52.190;20.910;2023-04-01T02:43:35;42.55;;;25.52;;
35330;SDS011;21441;52.190;20.910;2023-04-01T02:46:02;34.50;;;23.42;;
35330;SDS011;21441;52.190;20.910;2023-04-01T02:48:29;38.33;;;24.13;;
35330;SDS011;21441;52.190;20.910;2023-04-01T02:50:57;42.08;;;26.52;;
35330;SDS011;21441;52.190;20.910;2023-04-01T02:53:25;39.15;;;25.00;;
35330;SDS011;21441;52.190;20.910;2023-04-01T02:55:53;39.17;;;25.13;;
35330;SDS011;21441;52.190;20.910;2023-04-01T02:58:20;37.80;;;24.05;;
35330;SDS011;21441;52.190;20.910;2023-04-01T03:00:47;37.25;;;24.88;;
35330;SDS011;21441;52.190;20.910;2023-04-01T03:03:14;36.33;;;22.48;;
35330;SDS011;21441;52.190;20.910;2023-04-01T03:05:42;34.60;;;23.15;;
35330;SDS011;21441;52.190;20.910;2023-04-01T03:08:09;35.22;;;23.45;;
35330;SDS011;21441;52.190;20.910;2023-04-01T03:10:38;40.97;;;23.50;;
35330;SDS011;21441;52.190;20.910;2023-04-01T03:13:05;36.78;;;23.65;;
35330;SDS011;21441;52.190;20.910;2023-04-01T03:15:33;35.13;;;24.15;;
35330;SDS011;21441;52.190;20.910;2023-04-01T03:18:00;36.35;;;22.95;;
35330;SDS011;21441;52.190;20.910;2023-04-01T03:20:28;34.28;;;23.90;;
35330;SDS011;21441;52.190;20.910;2023-04-01T03:22:55;36.30;;;24.52;;
35330;SDS011;21441;52.190;20.910;2023-04-01T03:25:23;34.97;;;23.45;;
35330;SDS011;21441;52.190;20.910;2023-04-01T03:27:52;39.50;;;23.80;;
35330;SDS011;21441;52.190;20.910;2023-04-01T03:30:19;33.30;;;22.95;;
35330;SDS011;21441;52.190;20.910;2023-04-01T03:32:46;34.22;;;23.30;;
35330;SDS011;21441;52.190;20.910;2023-04-01T03:35:13;33.90;;;22.67;;
35330;SDS011;21441;52.190;20.910;2023-04-01T03:37:41;34.08;;;23.70;;
35330;SDS011;21441;52.190;20.910;2023-04-01T03:40:09;35.15;;;23.52;;
35330;SDS011;21441;52.190;20.910;2023-04-01T03:42:37;30.15;;;22.73;;
35330;SDS011;21441;52.190;20.910;2023-04-01T03:45:06;32.95;;;21.40;;
35330;SDS011;21441;52.190;20.910;2023-04-01T03:47:34;34.22;;;22.92;;
35330;SDS011;21441;52.190;20.910;2023-04-01T03:50:01;33.95;;;22.80;;
35330;SDS011;21441;52.190;20.910;2023-04-01T03:52:28;31.95;;;21.42;;
35330;SDS011;21441;52.190;20.910;2023-04-01T03:54:56;33.45;;;21.10;;
35330;SDS011;21441;52.190;20.910;2023-04-01T03:57:23;33.38;;;21.67;;
35330;SDS011;21441;52.190;20.910;2023-04-01T03:59:50;29.52;;;21.23;;
35330;SDS011;21441;52.190;20.910;2023-04-01T04:02:19;35.47;;;21.23;;
35330;SDS011;21441;52.190;20.910;2023-04-01T04:04:46;30.85;;;21.58;;
35330;SDS011;21441;52.190;20.910;2023-04-01T04:07:13;27.98;;;20.13;;
35330;SDS011;21441;52.190;20.910;2023-04-01T04:09:41;26.65;;;19.58;;
35330;SDS011;21441;52.190;20.910;2023-04-01T04:12:08;24.88;;;17.98;;
35330;SDS011;21441;52.190;20.910;2023-04-01T04:14:36;27.58;;;18.00;;
35330;SDS011;21441;52.190;20.910;2023-04-01T04:17:03;26.80;;;16.25;;
35330;SDS011;21441;52.190;20.910;2023-04-01T04:19:32;26.60;;;17.92;;
35330;SDS011;21441;52.190;20.910;2023-04-01T04:22:00;25.35;;;15.18;;
35330;SDS011;21441;52.190;20.910;2023-04-01T04:24:27;23.17;;;15.27;;
35330;SDS011;21441;52.190;20.910;2023-04-01T04:26:54;23.02;;;15.68;;
35330;SDS011;21441;52.190;20.910;2023-04-01T04:29:22;25.20;;;17.17;;
35330;SDS011;21441;52.190;20.910;2023-04-01T04:31:49;21.23;;;15.73;;
35330;SDS011;21441;52.190;20.910;2023-04-01T04:34:16;21.98;;;15.35;;
35330;SDS011;21441;52.190;20.910;2023-04-01T04:36:45;23.73;;;14.68;;
35330;SDS011;21441;52.190;20.910;2023-04-01T04:39:13;18.23;;;12.07;;
35330;SDS011;21441;52.190;20.910;2023-04-01T04:41:40;21.55;;;13.70;;
35330;SDS011;21441;52.190;20.910;2023-04-01T04:44:08;22.77;;;13.70;;
35330;SDS011;21441;52.190;20.910;2023-04-01T04:46:35;17.83;;;12.63;;
35330;SDS011;21441;52.190;20.910;2023-04-01T04:49:04;19.77;;;12.73;;
35330;SDS011;21441;52.190;20.910;2023-04-01T04:51:32;21.42;;;13.90;;
35330;SDS011;21441;52.190;20.910;2023-04-01T04:54:03;15.83;;;12.13;;
35330;SDS011;21441;52.190;20.910;2023-04-01T04:56:31;16.38;;;12.00;;
35330;SDS011;21441;52.190;20.910;2023-04-01T04:58:59;17.42;;;12.23;;
35330;SDS011;21441;52.190;20.910;2023-04-01T05:01:26;19.42;;;12.48;;
35330;SDS011;21441;52.190;20.910;2023-04-01T05:03:53;18.48;;;13.18;;
35330;SDS011;21441;52.190;20.910;2023-04-01T05:06:20;20.25;;;11.73;;
35330;SDS011;21441;52.190;20.910;2023-04-01T05:08:48;15.88;;;11.70;;
35330;SDS011;21441;52.190;20.910;2023-04-01T05:11:16;16.85;;;12.40;;
35330;SDS011;21441;52.190;20.910;2023-04-01T05:13:46;19.48;;;12.80;;
35330;SDS011;21441;52.190;20.910;2023-04-01T05:16:14;17.02;;;11.80;;
35330;SDS011;21441;52.190;20.910;2023-04-01T05:18:43;18.00;;;12.68;;
35330;SDS011;21441;52.190;20.910;2023-04-01T05:21:11;19.10;;;12.90;;
35330;SDS011;21441;52.190;20.910;2023-04-01T05:23:39;19.85;;;13.68;;
35330;SDS011;21441;52.190;20.910;2023-04-01T05:26:06;21.75;;;15.00;;
35330;SDS011;21441;52.190;20.910;2023-04-01T05:31:05;21.35;;;14.35;;
35330;SDS011;21441;52.190;20.910;2023-04-01T05:33:33;19.25;;;14.30;;
35330;SDS011;21441;52.190;20.910;2023-04-01T05:36:07;18.45;;;13.02;;
35330;SDS011;21441;52.190;20.910;2023-04-01T05:38:36;20.75;;;15.20;;
35330;SDS011;21441;52.190;20.910;2023-04-01T05:41:03;19.88;;;14.02;;
35330;SDS011;21441;52.190;20.910;2023-04-01T05:43:31;19.83;;;14.48;;
35330;SDS011;21441;52.190;20.910;2023-04-01T05:45:59;19.17;;;14.43;;
35330;SDS011;21441;52.190;20.910;2023-04-01T05:48:27;21.67;;;15.43;;
35330;SDS011;21441;52.190;20.910;2023-04-01T05:50:54;21.98;;;13.45;;
35330;SDS011;21441;52.190;20.910;2023-04-01T05:53:21;16.35;;;11.95;;
35330;SDS011;21441;52.190;20.910;2023-04-01T05:55:48;15.98;;;11.50;;
35330;SDS011;21441;52.190;20.910;2023-04-01T05:58:16;18.77;;;11.68;;
35330;SDS011;21441;52.190;20.910;2023-04-01T06:00:43;19.23;;;13.48;;
35330;SDS011;21441;52.190;20.910;2023-04-01T06:03:12;19.98;;;13.70;;
35330;SDS011;21441;52.190;20.910;2023-04-01T06:05:40;17.10;;;12.23;;
35330;SDS011;21441;52.190;20.910;2023-04-01T06:08:11;23.65;;;14.82;;
35330;SDS011;21441;52.190;20.910;2023-04-01T06:10:47;23.23;;;15.27;;
35330;SDS011;21441;52.190;20.910;2023-04-01T06:13:25;24.80;;;16.60;;
35330;SDS011;21441;52.190;20.910;2023-04-01T06:16:07;27.38;;;17.70;;
35330;SDS011;21441;52.190;20.910;2023-04-01T06:18:47;24.33;;;17.80;;
35330;SDS011;21441;52.190;20.910;2023-04-01T06:21:37;23.42;;;15.75;;
35330;SDS011;21441;52.190;20.910;2023-04-01T06:24:22;25.35;;;17.05;;
35330;SDS011;21441;52.190;20.910;2023-04-01T06:27:01;24.55;;;16.27;;
35330;SDS011;21441;52.190;20.910;2023-04-01T06:32:46;25.92;;;18.90;;
35330;SDS011;21441;52.190;20.910;2023-04-01T06:35:43;24.13;;;17.90;;
35330;SDS011;21441;52.190;20.910;2023-04-01T06:44:33;26.95;;;19.33;;
35330;SDS011;21441;52.190;20.910;2023-04-01T06:47:13;32.20;;;20.15;;
35330;SDS011;21441;52.190;20.910;2023-04-01T06:49:51;30.55;;;20.70;;
35330;SDS011;21441;52.190;20.910;2023-04-01T06:52:30;32.03;;;21.80;;
35330;SDS011;21441;52.190;20.910;2023-04-01T06:55:08;32.38;;;22.15;;
35330;SDS011;21441;52.190;20.910;2023-04-01T06:57:46;31.25;;;20.55;;
35330;SDS011;21441;52.190;20.910;2023-04-01T07:00:18;33.95;;;21.98;;
35330;SDS011;21441;52.190;20.910;2023-04-01T07:02:52;33.38;;;22.90;;
35330;SDS011;21441;52.190;20.910;2023-04-01T07:05:27;38.42;;;24.85;;
35330;SDS011;21441;52.190;20.910;2023-04-01T07:08:00;35.67;;;24.60;;
35330;SDS011;21441;52.190;20.910;2023-04-01T07:10:33;39.00;;;25.58;;
35330;SDS011;21441;52.190;20.910;2023-04-01T07:13:05;39.40;;;26.05;;
35330;SDS011;21441;52.190;20.910;2023-04-01T07:15:41;42.63;;;26.90;;
35330;SDS011;21441;52.190;20.910;2023-04-01T07:20:40;38.63;;;25.63;;
35330;SDS011;21441;52.190;20.910;2023-04-01T07:23:10;41.25;;;27.27;;
35330;SDS011;21441;52.190;20.910;2023-04-01T07:25:43;40.47;;;25.83;;
35330;SDS011;21441;52.190;20.910;2023-04-01T07:28:14;38.90;;;27.02;;
35330;SDS011;21441;52.190;20.910;2023-04-01T07:30:45;40.05;;;26.25;;
35330;SDS011;21441;52.190;20.910;2023-04-01T07:33:20;37.00;;;26.73;;
35330;SDS011;21441;52.190;20.910;2023-04-01T07:35:52;38.67;;;27.13;;
35330;SDS011;21441;52.190;20.910;2023-04-01T07:38:29;37.35;;;26.05;;
35330;SDS011;21441;52.190;20.910;2023-04-01T07:41:04;36.17;;;25.05;;
35330;SDS011;21441;52.190;20.910;2023-04-01T07:43:41;37.28;;;24.30;;
35330;SDS011;21441;52.190;20.910;2023-04-01T07:46:21;33.28;;;20.90;;
35330;SDS011;21441;52.190;20.910;2023-04-01T07:49:01;30.20;;;19.75;;
35330;SDS011;21441;52.190;20.910;2023-04-01T07:51:35;33.50;;;22.00;;
35330;SDS011;21441;52.190;20.910;2023-04-01T07:54:13;33.95;;;21.13;;
35330;SDS011;21441;52.190;20.910;2023-04-01T07:56:49;28.83;;;20.23;;
35330;SDS011;21441;52.190;20.910;2023-04-01T07:59:23;31.33;;;22.42;;
35330;SDS011;21441;52.190;20.910;2023-04-01T08:02:00;30.42;;;20.55;;
35330;SDS011;21441;52.190;20.910;2023-04-01T08:04:38;23.20;;;17.55;;
35330;SDS011;21441;52.190;20.910;2023-04-01T08:07:15;26.88;;;18.45;;
35330;SDS011;21441;52.190;20.910;2023-04-01T08:09:50;27.55;;;19.75;;
35330;SDS011;21441;52.190;20.910;2023-04-01T08:12:28;25.58;;;18.60;;
35330;SDS011;21441;52.190;20.910;2023-04-01T08:15:08;30.70;;;22.08;;
35330;SDS011;21441;52.190;20.910;2023-04-01T08:17:44;26.73;;;18.10;;
35330;SDS011;21441;52.190;20.910;2023-04-01T08:20:24;28.05;;;18.83;;
35330;SDS011;21441;52.190;20.910;2023-04-01T08:22:57;28.17;;;19.42;;
35330;SDS011;21441;52.190;20.910;2023-04-01T08:25:29;28.48;;;18.58;;
35330;SDS011;21441;52.190;20.910;2023-04-01T08:27:59;27.33;;;18.20;;
35330;SDS011;21441;52.190;20.910;2023-04-01T08:30:38;22.60;;;15.02;;
35330;SDS011;21441;52.190;20.910;2023-04-01T08:33:12;20.48;;;14.07;;
35330;SDS011;21441;52.190;20.910;2023-04-01T08:35:45;17.10;;;12.35;;
35330;SDS011;21441;52.190;20.910;2023-04-01T08:38:18;17.33;;;10.75;;
35330;SDS011;21441;52.190;20.910;2023-04-01T08:40:55;16.10;;;11.45;;
35330;SDS011;21441;52.190;20.910;2023-04-01T08:43:28;19.02;;;12.90;;
35330;SDS011;21441;52.190;20.910;2023-04-01T08:46:34;19.80;;;12.52;;
35330;SDS011;21441;52.190;20.910;2023-04-01T08:49:21;14.55;;;11.00;;
35330;SDS011;21441;52.190;20.910;2023-04-01T08:55:09;16.90;;;11.87;;
35330;SDS011;21441;52.190;20.910;2023-04-01T09:00:32;17.23;;;11.10;;
35330;SDS011;21441;52.190;20.910;2023-04-01T09:06:07;17.80;;;12.57;;
35330;SDS011;21441;52.190;20.910;2023-04-01T09:08:59;19.02;;;14.13;;
35330;SDS011;21441;52.190;20.910;2023-04-01T09:11:58;23.23;;;15.18;;
35330;SDS011;21441;52.190;20.910;2023-04-01T09:14:51;22.50;;;15.77;;
35330;SDS011;21441;52.190;20.910;2023-04-01T09:17:41;18.45;;;14.30;;
35330;SDS011;21441;52.190;20.910;2023-04-01T09:20:38;22.75;;;15.45;;
35330;SDS011;21441;52.190;20.910;2023-04-01T09:23:21;19.92;;;12.88;;
35330;SDS011;21441;52.190;20.910;2023-04-01T09:26:21;15.00;;;9.85;;
35330;SDS011;21441;52.190;20.910;2023-04-01T09:28:59;12.70;;;9.50;;
35330;SDS011;21441;52.190;20.910;2023-04-01T09:31:46;9.68;;;7.30;;
35330;SDS011;21441;52.190;20.910;2023-04-01T09:34:40;8.43;;;6.78;;
35330;SDS011;21441;52.190;20.910;2023-04-01T09:37:20;8.75;;;6.63;;
35330;SDS011;21441;52.190;20.910;2023-04-01T09:39:55;6.20;;;4.70;;
35330;SDS011;21441;52.190;20.910;2023-04-01T09:42:42;8.57;;;5.63;;
35330;SDS011;21441;52.190;20.910;2023-04-01T09:45:17;7.47;;;5.78;;
35330;SDS011;21441;52.190;20.910;2023-04-01T09:48:01;8.98;;;6.10;;
35330;SDS011;21441;52.190;20.910;2023-04-01T09:50:44;8.40;;;5.50;;
35330;SDS011;21441;52.190;20.910;2023-04-01T09:53:24;8.50;;;5.38;;
35330;SDS011;21441;52.190;20.910;2023-04-01T09:59:36;6.90;;;5.50;;
35330;SDS011;21441;52.190;20.910;2023-04-01T10:02:40;9.77;;;5.97;;
35330;SDS011;21441;52.190;20.910;2023-04-01T10:09:00;6.03;;;4.95;;
35330;SDS011;21441;52.190;20.910;2023-04-01T10:15:00;5.93;;;4.88;;
35330;SDS011;21441;52.190;20.910;2023-04-01T10:18:04;6.90;;;5.35;;
35330;SDS011;21441;52.190;20.910;2023-04-01T10:21:05;8.80;;;5.43;;
35330;SDS011;21441;52.190;20.910;2023-04-01T10:27:07;5.93;;;4.50;;
35330;SDS011;21441;52.190;20.910;2023-04-01T10:30:00;5.70;;;3.85;;
35330;SDS011;21441;52.190;20.910;2023-04-01T10:32:52;5.57;;;4.72;;
35330;SDS011;21441;52.190;20.910;2023-04-01T10:36:00;8.23;;;5.07;;
35330;SDS011;21441;52.190;20.910;2023-04-01T10:39:00;6.07;;;5.00;;
35330;SDS011;21441;52.190;20.910;2023-04-01T10:42:04;7.33;;;5.97;;
35330;SDS011;21441;52.190;20.910;2023-04-01T10:44:53;8.45;;;6.45;;
35330;SDS011;21441;52.190;20.910;2023-04-01T10:48:21;10.05;;;6.43;;
35330;SDS011;21441;52.190;20.910;2023-04-01T10:57:09;6.10;;;4.18;;
35330;SDS011;21441;52.190;20.910;2023-04-01T11:00:04;5.53;;;3.90;;
35330;SDS011;21441;52.190;20.910;2023-04-01T11:21:50;8.50;;;5.80;;
35330;SDS011;21441;52.190;20.910;2023-04-01T11:27:53;7.75;;;6.72;;
35330;SDS011;21441;52.190;20.910;2023-04-01T11:30:41;9.35;;;7.18;;
35330;SDS011;21441;52.190;20.910;2023-04-01T11:33:22;9.77;;;7.30;;
35330;SDS011;21441;52.190;20.910;2023-04-01T11:38:53;8.75;;;6.65;;
35330;SDS011;21441;52.190;20.910;2023-04-01T11:41:32;7.72;;;6.30;;
35330;SDS011;21441;52.190;20.910;2023-04-01T11:44:15;9.32;;;6.18;;
35330;SDS011;21441;52.190;20.910;2023-04-01T11:47:02;6.13;;;4.35;;
35330;SDS011;21441;52.190;20.910;2023-04-01T11:53:02;9.52;;;7.10;;
35330;SDS011;21441;52.190;20.910;2023-04-01T11:55:44;5.45;;;4.72;;
35330;SDS011;21441;52.190;20.910;2023-04-01T12:01:01;6.07;;;4.15;;
35330;SDS011;21441;52.190;20.910;2023-04-01T12:03:41;5.05;;;4.05;;
35330;SDS011;21441;52.190;20.910;2023-04-01T12:06:23;5.90;;;3.78;;
35330;SDS011;21441;52.190;20.910;2023-04-01T12:09:01;3.38;;;2.75;;
35330;SDS011;21441;52.190;20.910;2023-04-01T12:11:35;3.63;;;2.80;;
35330;SDS011;21441;52.190;20.910;2023-04-01T12:14:11;3.70;;;3.03;;
35330;SDS011;21441;52.190;20.910;2023-04-01T12:16:52;3.83;;;2.78;;
35330;SDS011;21441;52.190;20.910;2023-04-01T12:19:30;4.50;;;2.67;;
35330;SDS011;21441;52.190;20.910;2023-04-01T12:22:09;3.60;;;3.30;;
35330;SDS011;21441;52.190;20.910;2023-04-01T12:24:47;4.28;;;3.70;;
35330;SDS011;21441;52.190;20.910;2023-04-01T12:27:31;4.35;;;3.95;;
35330;SDS011;21441;52.190;20.910;2023-04-01T12:36:24;4.68;;;3.95;;
35330;SDS011;21441;52.190;20.910;2023-04-01T12:39:06;4.53;;;3.80;;
35330;SDS011;21441;52.190;20.910;2023-04-01T12:41:48;4.85;;;3.80;;
35330;SDS011;21441;52.190;20.910;2023-04-01T12:44:37;4.38;;;3.67;;
35330;SDS011;21441;52.190;20.910;2023-04-01T12:47:19;4.97;;;3.95;;
35330;SDS011;21441;52.190;20.910;2023-04-01T12:53:07;5.78;;;4.22;;
35330;SDS011;21441;52.190;20.910;2023-04-01T12:55:59;7.25;;;4.85;;
35330;SDS011;21441;52.190;20.910;2023-04-01T13:01:29;4.95;;;4.05;;
35330;SDS011;21441;52.190;20.910;2023-04-01T13:04:20;6.07;;;4.85;;
35330;SDS011;21441;52.190;20.910;2023-04-01T13:07:08;5.78;;;5.18;;
35330;SDS011;21441;52.190;20.910;2023-04-01T13:09:45;5.80;;;4.88;;
35330;SDS011;21441;52.190;20.910;2023-04-01T13:12:24;5.55;;;4.90;;
35330;SDS011;21441;52.190;20.910;2023-04-01T13:18:07;5.60;;;5.10;;
35330;SDS011;21441;52.190;20.910;2023-04-01T13:20:59;7.60;;;5.53;;
35330;SDS011;21441;52.190;20.910;2023-04-01T13:23:35;5.90;;;5.30;;
35330;SDS011;21441;52.190;20.910;2023-04-01T13:26:17;3.78;;;3.38;;
35330;SDS011;21441;52.190;20.910;2023-04-01T13:28:50;4.70;;;3.90;;
35330;SDS011;21441;52.190;20.910;2023-04-01T13:31:31;4.32;;;2.90;;
35330;SDS011;21441;52.190;20.910;2023-04-01T13:34:20;3.20;;;2.58;;
35330;SDS011;21441;52.190;20.910;2023-04-01T13:37:01;2.90;;;2.53;;
35330;SDS011;21441;52.190;20.910;2023-04-01T13:39:43;2.38;;;2.10;;
35330;SDS011;21441;52.190;20.910;2023-04-01T13:42:21;2.83;;;2.13;;
35330;SDS011;21441;52.190;20.910;2023-04-01T13:44:54;2.38;;;1.83;;
35330;SDS011;21441;52.190;20.910;2023-04-01T13:47:49;2.35;;;2.00;;
35330;SDS011;21441;52.190;20.910;2023-04-01T13:50:32;2.10;;;1.90;;
35330;SDS011;21441;52.190;20.910;2023-04-01T13:53:11;3.13;;;2.58;;
35330;SDS011;21441;52.190;20.910;2023-04-01T13:55:56;3.30;;;2.42;;
35330;SDS011;21441;52.190;20.910;2023-04-01T14:01:17;4.47;;;2.28;;
35330;SDS011;21441;52.190;20.910;2023-04-01T14:04:03;3.22;;;2.92;;
35330;SDS011;21441;52.190;20.910;2023-04-01T14:06:48;3.58;;;2.45;;
35330;SDS011;21441;52.190;20.910;2023-04-01T14:12:31;3.88;;;2.45;;
35330;SDS011;21441;52.190;20.910;2023-04-01T14:15:11;3.78;;;2.40;;
35330;SDS011;21441;52.190;20.910;2023-04-01T14:17:51;3.58;;;2.65;;
35330;SDS011;21441;52.190;20.910;2023-04-01T14:20:33;3.00;;;2.70;;
35330;SDS011;21441;52.190;20.910;2023-04-01T14:23:14;3.58;;;3.03;;
35330;SDS011;21441;52.190;20.910;2023-04-01T14:25:58;5.95;;;3.10;;
35330;SDS011;21441;52.190;20.910;2023-04-01T14:28:52;4.07;;;3.22;;
35330;SDS011;21441;52.190;20.910;2023-04-01T14:31:34;4.07;;;3.00;;
35330;SDS011;21441;52.190;20.910;2023-04-01T14:34:15;4.55;;;3.70;;
35330;SDS011;21441;52.190;20.910;2023-04-01T14:36:55;3.47;;;2.80;;
35330;SDS011;21441;52.190;20.910;2023-04-01T14:39:43;3.22;;;2.92;;
35330;SDS011;21441;52.190;20.910;2023-04-01T14:42:41;3.35;;;2.60;;
35330;SDS011;21441;52.190;20.910;2023-04-01T14:45:27;3.55;;;2.75;;
35330;SDS011;21441;52.190;20.910;2023-04-01T14:48:14;2.83;;;2.63;;
35330;SDS011;21441;52.190;20.910;2023-04-01T14:50:49;1.90;;;1.80;;
35330;SDS011;21441;52.190;20.910;2023-04-01T14:53:24;2.63;;;2.08;;
35330;SDS011;21441;52.190;20.910;2023-04-01T14:55:55;2.80;;;2.50;;
35330;SDS011;21441;52.190;20.910;2023-04-01T14:58:26;3.15;;;2.50;;
35330;SDS011;21441;52.190;20.910;2023-04-01T15:01:13;2.90;;;2.50;;
35330;SDS011;21441;52.190;20.910;2023-04-01T15:03:58;2.95;;;2.70;;
35330;SDS011;21441;52.190;20.910;2023-04-01T15:06:45;2.90;;;2.30;;
35330;SDS011;21441;52.190;20.910;2023-04-01T15:09:26;3.55;;;2.60;;
35330;SDS011;21441;52.190;20.910;2023-04-01T15:12:08;3.75;;;2.50;;
35330;SDS011;21441;52.190;20.910;2023-04-01T15:14:59;3.15;;;2.58;;
35330;SDS011;21441;52.190;20.910;2023-04-01T15:17:44;4.30;;;3.90;;
35330;SDS011;21441;52.190;20.910;2023-04-01T15:20:33;5.78;;;3.50;;
35330;SDS011;21441;52.190;20.910;2023-04-01T15:23:26;3.67;;;3.00;;
35330;SDS011;21441;52.190;20.910;2023-04-01T15:26:17;6.00;;;3.95;;
35330;SDS011;21441;52.190;20.910;2023-04-01T15:28:55;5.95;;;4.13;;
35330;SDS011;21441;52.190;20.910;2023-04-01T15:31:34;4.30;;;3.65;;
35330;SDS011;21441;52.190;20.910;2023-04-01T15:34:17;5.82;;;3.83;;
35330;SDS011;21441;52.190;20.910;2023-04-01T15:36:53;5.80;;;4.50;;
35330;SDS011;21441;52.190;20.910;2023-04-01T15:39:30;4.78;;;3.78;;
35330;SDS011;21441;52.190;20.910;2023-04-01T15:42:14;3.58;;;3.28;;
35330;SDS011;21441;52.190;20.910;2023-04-01T15:44:52;4.95;;;3.45;;
35330;SDS011;21441;52.190;20.910;2023-04-01T15:47:32;3.85;;;3.03;;
35330;SDS011;21441;52.190;20.910;2023-04-01T15:50:21;3.95;;;3.50;;
35330;SDS011;21441;52.190;20.910;2023-04-01T15:53:17;4.53;;;3.60;;
35330;SDS011;21441;52.190;20.910;2023-04-01T15:55:54;4.00;;;2.78;;
35330;SDS011;21441;52.190;20.910;2023-04-01T15:58:35;4.80;;;3.20;;
35330;SDS011;21441;52.190;20.910;2023-04-01T16:01:18;3.50;;;2.40;;
35330;SDS011;21441;52.190;20.910;2023-04-01T16:03:57;4.70;;;2.58;;
35330;SDS011;21441;52.190;20.910;2023-04-01T16:06:48;4.13;;;2.42;;
35330;SDS011;21441;52.190;20.910;2023-04-01T16:09:34;4.38;;;2.28;;
35330;SDS011;21441;52.190;20.910;2023-04-01T16:12:22;2.63;;;2.20;;
35330;SDS011;21441;52.190;20.910;2023-04-01T16:15:08;4.32;;;2.38;;
35330;SDS011;21441;52.190;20.910;2023-04-01T16:17:54;3.22;;;2.30;;
35330;SDS011;21441;52.190;20.910;2023-04-01T16:23:13;2.20;;;1.95;;
35330;SDS011;21441;52.190;20.910;2023-04-01T16:25:47;3.53;;;2.80;;
35330;SDS011;21441;52.190;20.910;2023-04-01T16:28:21;3.72;;;2.85;;
35330;SDS011;21441;52.190;20.910;2023-04-01T16:30:56;2.15;;;1.95;;
35330;SDS011;21441;52.190;20.910;2023-04-01T16:33:30;2.85;;;2.35;;
35330;SDS011;21441;52.190;20.910;2023-04-01T16:36:07;3.17;;;2.50;;
35330;SDS011;21441;52.190;20.910;2023-04-01T16:38:43;2.95;;;2.65;;
35330;SDS011;21441;52.190;20.910;2023-04-01T16:41:17;3.20;;;2.67;;
35330;SDS011;21441;52.190;20.910;2023-04-01T16:43:48;2.65;;;1.80;;
35330;SDS011;21441;52.190;20.910;2023-04-01T16:46:26;3.67;;;2.33;;
35330;SDS011;21441;52.190;20.910;2023-04-01T16:48:58;2.00;;;1.75;;
35330;SDS011;21441;52.190;20.910;2023-04-01T16:54:04;3.28;;;2.05;;
35330;SDS011;21441;52.190;20.910;2023-04-01T16:59:07;2.90;;;2.50;;